createdAt,value
2019-05-29T00:01:28.105Z,101982.47
2019-05-29T00:03:59.242Z,101981.47
2019-05-29T00:06:29.452Z,101983.72
2019-05-29T00:08:59.609Z,101979.48
2019-05-29T00:11:29.819Z,101986.66
2019-05-29T00:14:15.538Z,101980.49
2019-05-29T00:16:33.236Z,101987.61
2019-05-29T00:19:03.389Z,101984.33
2019-05-29T00:21:33.566Z,101986.11
2019-05-29T00:24:03.727Z,101992.39
2019-05-29T00:26:33.995Z,101991.43
2019-05-29T00:29:05.547Z,101993.26
2019-05-29T00:31:35.867Z,101995.06
2019-05-29T00:34:06.987Z,101987.41
2019-05-29T00:36:37.220Z,101999.09
2019-05-29T00:39:08.647Z,101993.98
2019-05-29T00:41:38.931Z,101996.23
2019-05-29T00:44:11.138Z,102002.47
2019-05-29T00:46:41.306Z,101999.63
2019-05-29T00:49:11.784Z,101997.85
2019-05-29T00:51:42.007Z,101994.48
2019-05-29T00:54:12.534Z,102001.55
2019-05-29T00:56:42.944Z,102000.65
2019-05-29T00:59:13.172Z,102001.69
2019-05-29T01:01:43.398Z,102004.20
2019-05-29T01:04:13.645Z,102008.84
2019-05-29T01:06:43.885Z,102008.84
2019-05-29T01:09:14.428Z,102006.41
2019-05-29T01:11:44.735Z,102005.55
2019-05-29T01:14:15.171Z,102000.59
2019-05-29T01:16:45.285Z,102004.48
2019-05-29T01:19:24.787Z,102005.09
2019-05-29T01:21:56.029Z,102006.66
2019-05-29T01:24:26.488Z,102002.20
2019-05-29T01:26:56.631Z,102004.57
2019-05-29T01:29:26.819Z,102004.20
2019-05-29T01:31:57.366Z,102010.70
2019-05-29T01:34:27.665Z,102010.47
2019-05-29T01:36:57.839Z,102015.56
2019-05-29T01:39:27.987Z,102020.97
2019-05-29T01:41:59.231Z,102020.53
2019-05-29T01:44:29.449Z,102019.58
2019-05-29T01:46:59.679Z,102020.07
2019-05-29T01:49:33.799Z,102017.84
2019-05-29T01:52:03.918Z,102026.25
2019-05-29T01:54:35.096Z,102013.63
2019-05-29T01:57:05.301Z,102014.73
2019-05-29T01:59:35.508Z,102018.27
2019-05-29T02:02:05.692Z,102020.36
2019-05-29T02:04:35.884Z,102021.72
2019-05-29T02:07:06.118Z,102023.95
2019-05-29T02:09:36.336Z,102024.78
2019-05-29T02:12:06.579Z,102031.95
2019-05-29T02:14:36.724Z,102031.36
2019-05-29T02:17:06.878Z,102045.96
2019-05-29T02:19:37.184Z,102059.17
2019-05-29T02:22:07.564Z,102067.09
2019-05-29T02:24:37.743Z,102079.66
2019-05-29T02:27:10.189Z,102086.09
2019-05-29T02:29:40.388Z,102076.27
2019-05-29T02:32:10.547Z,102088.31
2019-05-29T02:34:40.736Z,102082.22
2019-05-29T02:37:10.913Z,102091.11
2019-05-29T02:39:42.789Z,102088.00
2019-05-29T02:42:13.019Z,102087.78
2019-05-29T02:44:43.194Z,102088.06
2019-05-29T02:47:14.902Z,102089.81
2019-05-29T02:49:45.064Z,102088.38
2019-05-29T02:52:15.278Z,102082.44
2019-05-29T02:54:45.533Z,102086.96
2019-05-29T02:57:15.694Z,102088.00
2019-05-29T02:59:46.858Z,102085.98
2019-05-29T03:02:17.069Z,102091.81
2019-05-29T03:04:47.330Z,102085.83
2019-05-29T03:07:17.599Z,102091.50
2019-05-29T03:09:47.767Z,102090.27
2019-05-29T03:12:17.934Z,102079.26
2019-05-29T03:14:48.181Z,102079.95
2019-05-29T03:17:18.328Z,102086.56
2019-05-29T03:19:48.483Z,102081.88
2019-05-29T03:22:18.610Z,102084.12
2019-05-29T03:24:48.723Z,102091.01
2019-05-29T03:27:18.842Z,102097.05
2019-05-29T03:29:50.058Z,102092.89
2019-05-29T03:32:20.285Z,102098.04
2019-05-29T03:34:50.463Z,102096.77
2019-05-29T03:37:20.604Z,102097.08
2019-05-29T03:39:50.786Z,102102.25
2019-05-29T03:42:22.132Z,102098.20
2019-05-29T03:44:52.304Z,102105.88
2019-05-29T03:47:22.546Z,102112.97
2019-05-29T03:49:53.840Z,102106.86
2019-05-29T03:52:26.336Z,102104.27
2019-05-29T03:54:58.236Z,102114.77
2019-05-29T03:57:29.734Z,102107.84
2019-05-29T04:00:00.304Z,102115.53
2019-05-29T04:02:33.298Z,102124.72
2019-05-29T04:05:03.937Z,102117.21
2019-05-29T04:07:35.710Z,102124.88
2019-05-29T04:10:06.640Z,102128.48
2019-05-29T04:12:38.097Z,102132.72
2019-05-29T04:15:09.776Z,102132.53
2019-05-29T04:17:41.624Z,102138.36
2019-05-29T04:20:11.882Z,102144.48
2019-05-29T04:22:45.152Z,102145.88
2019-05-29T04:25:15.425Z,102143.55
2019-05-29T04:27:48.550Z,102154.33
2019-05-29T04:30:19.742Z,102153.66
2019-05-29T04:32:49.766Z,102151.50
2019-05-29T04:35:19.940Z,102155.66
2019-05-29T04:37:50.066Z,102155.25
2019-05-29T04:40:20.205Z,102157.78
2019-05-29T04:42:50.338Z,102160.93
2019-05-29T04:45:20.599Z,102167.49
2019-05-29T04:47:50.755Z,102173.56
2019-05-29T04:50:20.911Z,102173.07
2019-05-29T04:52:51.116Z,102183.11
2019-05-29T04:55:22.829Z,102182.42
2019-05-29T04:57:52.984Z,102178.33
2019-05-29T05:00:24.153Z,102180.28
2019-05-29T05:02:54.319Z,102179.51
2019-05-29T05:05:24.451Z,102188.52
2019-05-29T05:07:54.691Z,102190.62
2019-05-29T05:10:38.176Z,102196.69
2019-05-29T05:13:08.915Z,102196.42
2019-05-29T05:15:40.620Z,102195.50
2019-05-29T05:18:10.918Z,102199.63
2019-05-29T05:20:41.327Z,102195.63
2019-05-29T05:23:11.443Z,102197.42
2019-05-29T05:25:41.596Z,102195.52
2019-05-29T05:28:11.760Z,102197.42
2019-05-29T05:30:41.984Z,102205.12
2019-05-29T05:33:12.576Z,102209.81
2019-05-29T05:35:42.789Z,102213.98
2019-05-29T05:38:12.969Z,102214.88
2019-05-29T05:40:43.833Z,102219.39
2019-05-29T05:43:23.798Z,102221.75
2019-05-29T05:45:45.840Z,102231.70
2019-05-29T05:48:17.057Z,102234.28
2019-05-29T05:50:47.254Z,102241.85
2019-05-29T05:53:17.424Z,102243.59
2019-05-29T05:55:47.592Z,102243.66
2019-05-29T05:58:17.753Z,102245.92
2019-05-29T06:00:49.134Z,102250.70
2019-05-29T06:03:19.352Z,102246.48
2019-05-29T06:05:49.564Z,102248.59
2019-05-29T06:08:19.911Z,102248.87
2019-05-29T06:10:51.321Z,102250.64
2019-05-29T06:13:21.603Z,102252.77
2019-05-29T06:15:51.814Z,102253.80
2019-05-29T06:18:22.194Z,102259.84
2019-05-29T06:20:54.388Z,102262.20
2019-05-29T06:23:24.335Z,102255.75
2019-05-29T06:25:54.515Z,102254.38
2019-05-29T06:28:24.711Z,102255.81
2019-05-29T06:30:54.855Z,102257.94
2019-05-29T06:33:25.126Z,102251.47
2019-05-29T06:35:55.329Z,102255.03
2019-05-29T06:38:26.002Z,102248.41
2019-05-29T06:40:57.781Z,102241.21
2019-05-29T06:43:28.139Z,102252.25
2019-05-29T06:45:58.311Z,102261.05
2019-05-29T06:51:01.182Z,102269.30
2019-05-29T06:53:32.451Z,102262.36
2019-05-29T06:56:03.536Z,102267.89
2019-05-29T06:58:33.990Z,102268.78
2019-05-29T07:01:04.155Z,102265.50
2019-05-29T07:03:35.603Z,102265.60
2019-05-29T07:06:05.985Z,102264.36
2019-05-29T07:08:40.178Z,102265.45
2019-05-29T07:11:08.078Z,102265.25
2019-05-29T07:13:41.890Z,102268.59
2019-05-29T07:16:11.836Z,102271.89
2019-05-29T07:19:18.352Z,102273.65
2019-05-29T07:21:13.998Z,102276.23
2019-05-29T07:23:46.137Z,102277.83
2019-05-29T07:26:16.150Z,102279.62
2019-05-29T07:29:02.975Z,102280.23
2019-05-29T07:31:18.329Z,102286.23
2019-05-29T07:33:48.653Z,102293.89
2019-05-29T07:36:20.134Z,102283.30
2019-05-29T07:39:02.487Z,102278.93
2019-05-29T07:41:22.255Z,102282.62
2019-05-29T07:43:52.980Z,102282.86
2019-05-29T07:46:23.231Z,102289.55
2019-05-29T07:48:58.018Z,102286.76
2019-05-29T07:51:28.211Z,102284.94
2019-05-29T07:53:58.366Z,102285.99
2019-05-29T07:56:28.524Z,102287.59
2019-05-29T07:59:03.660Z,102290.80
2019-05-29T08:01:33.759Z,102284.48
2019-05-29T08:04:04.032Z,102287.24
2019-05-29T08:06:34.294Z,102292.98
2019-05-29T08:09:06.121Z,102293.23
2019-05-29T08:11:36.512Z,102290.23
2019-05-29T08:14:06.793Z,102296.97
2019-05-29T08:16:39.670Z,102297.57
2019-05-29T08:19:10.004Z,102287.04
2019-05-29T08:21:40.956Z,102294.17
2019-05-29T08:24:12.052Z,102293.02
2019-05-29T08:26:44.887Z,102285.70
2019-05-29T08:29:15.145Z,102288.70
2019-05-29T08:31:45.372Z,102290.63
2019-05-29T08:34:15.553Z,102284.58
2019-05-29T08:37:02.199Z,102290.86
2019-05-29T08:39:34.023Z,102286.77
2019-05-29T08:42:17.594Z,102290.70
2019-05-29T08:44:24.292Z,102290.50
2019-05-29T08:47:09.100Z,102288.89
2019-05-29T08:49:27.891Z,102285.22
2019-05-29T08:52:11.300Z,102286.61
2019-05-29T08:54:30.059Z,102291.42
2019-05-29T08:57:00.243Z,102283.66
2019-05-29T08:59:31.182Z,102286.80
2019-05-29T09:02:01.352Z,102281.17
2019-05-29T09:04:31.540Z,102280.94
2019-05-29T09:07:01.735Z,102289.81
2019-05-29T09:09:31.888Z,102281.63
2019-05-29T09:12:02.085Z,102283.87
2019-05-29T09:14:32.391Z,102283.66
2019-05-29T09:17:02.627Z,102281.03
2019-05-29T09:19:32.915Z,102284.68
2019-05-29T09:22:03.187Z,102281.37
2019-05-29T09:24:33.441Z,102282.16
2019-05-29T09:27:03.628Z,102275.19
2019-05-29T09:29:33.808Z,102279.54
2019-05-29T09:32:04.140Z,102280.92
2019-05-29T09:34:34.300Z,102274.61
2019-05-29T09:37:04.480Z,102278.64
2019-05-29T09:39:34.773Z,102275.98
2019-05-29T09:42:05.137Z,102274.31
2019-05-29T09:44:39.455Z,102272.08
2019-05-29T09:47:08.341Z,102275.34
2019-05-29T09:49:38.536Z,102269.77
2019-05-29T09:52:08.685Z,102277.85
2019-05-29T09:54:38.834Z,102279.65
2019-05-29T09:57:08.962Z,102277.19
2019-05-29T09:59:39.144Z,102281.81
2019-05-29T10:02:09.585Z,102274.86
2019-05-29T10:04:40.675Z,102278.29
2019-05-29T10:07:10.875Z,102276.31
2019-05-29T10:09:41.028Z,102277.89
2019-05-29T10:12:11.161Z,102272.98
2019-05-29T10:14:41.345Z,102272.41
2019-05-29T10:17:13.011Z,102279.44
2019-05-29T10:19:43.591Z,102279.29
2019-05-29T10:22:13.830Z,102271.91
2019-05-29T10:24:44.035Z,102275.06
2019-05-29T10:27:14.219Z,102272.48
2019-05-29T10:29:44.896Z,102276.09
2019-05-29T10:32:16.765Z,102269.30
2019-05-29T10:34:48.398Z,102275.70
2019-05-29T10:37:18.686Z,102271.63
2019-05-29T10:39:49.030Z,102274.09
2019-05-29T10:42:20.853Z,102270.30
2019-05-29T10:44:51.359Z,102266.47
2019-05-29T10:47:22.863Z,102262.77
2019-05-29T10:49:53.855Z,102274.98
2019-05-29T10:52:24.180Z,102263.89
2019-05-29T10:54:54.486Z,102264.37
2019-05-29T10:57:25.843Z,102253.98
2019-05-29T10:59:55.982Z,102258.94
2019-05-29T11:02:26.169Z,102260.66
2019-05-29T11:04:59.120Z,102263.16
2019-05-29T11:07:29.030Z,102251.84
2019-05-29T11:09:59.805Z,102247.03
2019-05-29T11:12:29.958Z,102248.46
2019-05-29T11:15:00.150Z,102252.08
2019-05-29T11:17:30.332Z,102246.58
2019-05-29T11:20:00.563Z,102247.17
2019-05-29T11:22:31.519Z,102243.97
2019-05-29T11:25:21.125Z,102242.87
2019-05-29T11:27:33.515Z,102252.84
2019-05-29T11:30:03.895Z,102250.11
2019-05-29T11:32:34.141Z,102256.39
2019-05-29T11:35:04.624Z,102249.05
2019-05-29T11:37:35.471Z,102243.45
2019-05-29T11:40:06.157Z,102245.09
2019-05-29T11:42:36.316Z,102237.41
2019-05-29T11:45:09.253Z,102233.14
2019-05-29T11:47:39.411Z,102235.48
2019-05-29T11:50:19.214Z,102240.20
2019-05-29T11:52:43.738Z,102240.08
2019-05-29T11:55:14.504Z,102245.08
2019-05-29T11:57:44.737Z,102239.42
2019-05-29T12:00:20.264Z,102235.52
2019-05-29T12:02:47.998Z,102246.62
2019-05-29T12:05:18.401Z,102230.20
2019-05-29T12:07:48.666Z,102234.99
2019-05-29T12:10:18.988Z,102228.36
2019-05-29T12:12:49.561Z,102225.31
2019-05-29T12:15:19.978Z,102235.87
2019-05-29T12:17:55.700Z,102227.13
2019-05-29T12:20:27.956Z,102227.64
2019-05-29T12:23:18.914Z,102221.45
2019-05-29T12:25:26.125Z,102218.97
2019-05-29T12:27:57.324Z,102215.41
2019-05-29T12:30:27.669Z,102208.86
2019-05-29T12:32:59.063Z,102214.03
2019-05-29T12:35:32.479Z,102207.60
2019-05-29T12:38:03.523Z,102211.62
2019-05-29T12:40:33.821Z,102215.89
2019-05-29T12:43:04.081Z,102212.73
2019-05-29T12:45:34.389Z,102214.58
2019-05-29T12:48:11.637Z,102205.74
2019-05-29T12:50:36.733Z,102207.98
2019-05-29T12:53:07.134Z,102204.28
2019-05-29T12:55:37.503Z,102197.86
2019-05-29T12:58:08.371Z,102197.03
2019-05-29T13:00:38.609Z,102195.42
2019-05-29T13:03:08.889Z,102192.80
2019-05-29T13:05:39.033Z,102195.06
2019-05-29T13:08:09.217Z,102192.14
2019-05-29T13:10:39.370Z,102176.91
2019-05-29T13:13:11.175Z,102176.75
2019-05-29T13:15:41.489Z,102172.84
2019-05-29T13:18:13.740Z,102169.52
2019-05-29T13:20:43.959Z,102171.70
2019-05-29T13:23:14.169Z,102171.30
2019-05-29T13:25:44.524Z,102176.29
2019-05-29T13:28:14.724Z,102170.01
2019-05-29T13:30:44.964Z,102165.91
2019-05-29T13:33:15.196Z,102167.61
2019-05-29T13:35:46.960Z,102168.80
2019-05-29T13:38:17.122Z,102176.20
2019-05-29T13:40:47.324Z,102167.14
2019-05-29T13:43:17.580Z,102175.25
2019-05-29T13:45:47.753Z,102161.28
2019-05-29T13:48:18.914Z,102159.30
2019-05-29T13:50:49.391Z,102155.94
2019-05-29T13:53:20.293Z,102160.98
2019-05-29T13:55:50.456Z,102162.13
2019-05-29T13:58:20.661Z,102152.31
2019-05-29T14:00:50.888Z,102152.27
2019-05-29T14:03:21.212Z,102142.13
2019-05-29T14:05:51.537Z,102135.55
2019-05-29T14:08:21.793Z,102141.20
2019-05-29T14:10:52.011Z,102126.64
2019-05-29T14:13:22.765Z,102137.95
2019-05-29T14:15:53.205Z,102124.37
2019-05-29T14:18:24.451Z,102119.75
2019-05-29T14:20:56.205Z,102134.72
2019-05-29T14:23:26.454Z,102129.52
2019-05-29T14:25:56.654Z,102127.20
2019-05-29T14:28:26.837Z,102116.56
2019-05-29T14:30:57.040Z,102128.16
2019-05-29T14:33:27.277Z,102118.58
2019-05-29T14:35:57.447Z,102114.56
2019-05-29T14:38:27.604Z,102104.66
2019-05-29T14:40:57.784Z,102121.84
2019-05-29T14:43:27.959Z,102111.03
2019-05-29T14:45:58.162Z,102111.59
2019-05-29T14:48:29.170Z,102110.80
2019-05-29T14:51:03.611Z,102113.69
2019-05-29T14:53:33.329Z,102108.70
2019-05-29T14:56:04.454Z,102117.09
2019-05-29T14:58:35.770Z,102108.64
2019-05-29T15:01:07.160Z,102109.56
2019-05-29T15:03:40.688Z,102106.57
2019-05-29T15:06:11.729Z,102108.78
2019-05-29T15:08:42.031Z,102106.55
2019-05-29T15:11:14.101Z,102110.38
2019-05-29T15:13:44.253Z,102113.31
2019-05-29T15:16:15.772Z,102111.95
2019-05-29T15:18:45.950Z,102106.76
2019-05-29T15:21:16.121Z,102104.17
2019-05-29T15:23:47.902Z,102103.73
2019-05-29T15:26:20.108Z,102104.15
2019-05-29T15:28:56.372Z,102102.39
2019-05-29T15:31:26.592Z,102100.57
2019-05-29T15:33:57.007Z,102093.63
2019-05-29T15:36:27.237Z,102103.12
2019-05-29T15:38:58.377Z,102101.58
2019-05-29T15:41:28.639Z,102092.66
2019-05-29T15:43:58.873Z,102090.57
2019-05-29T15:46:30.766Z,102095.34
2019-05-29T15:49:01.165Z,102089.45
2019-05-29T15:51:31.547Z,102090.44
2019-05-29T15:54:01.762Z,102093.22
2019-05-29T15:56:31.971Z,102088.58
2019-05-29T15:59:02.232Z,102089.58
2019-05-29T16:01:32.476Z,102089.53
2019-05-29T16:04:02.782Z,102090.55
2019-05-29T16:06:32.941Z,102094.37
2019-05-29T16:09:03.565Z,102097.09
2019-05-29T16:11:33.900Z,102087.16
2019-05-29T16:14:05.579Z,102088.75
2019-05-29T16:16:35.791Z,102085.77
2019-05-29T16:19:06.034Z,102082.05
2019-05-29T16:21:36.201Z,102082.19
2019-05-29T16:24:06.431Z,102076.56
2019-05-29T16:26:36.581Z,102069.88
2019-05-29T16:29:06.782Z,102079.84
2019-05-29T16:31:40.272Z,102069.27
2019-05-29T16:34:12.196Z,102070.95
2019-05-29T16:36:42.505Z,102057.90
2019-05-29T16:39:13.496Z,102060.60
2019-05-29T16:41:43.765Z,102059.27
2019-05-29T16:44:16.311Z,102057.36
2019-05-29T16:46:46.657Z,102058.01
2019-05-29T16:49:16.805Z,102058.15
2019-05-29T16:51:47.101Z,102056.92
2019-05-29T16:54:17.371Z,102055.18
2019-05-29T16:56:47.568Z,102053.51
2019-05-29T16:59:19.125Z,102056.61
2019-05-29T17:01:49.489Z,102054.28
2019-05-29T17:04:19.702Z,102054.66
2019-05-29T17:06:49.921Z,102055.78
2019-05-29T17:09:20.352Z,102052.31
2019-05-29T17:11:50.565Z,102050.86
2019-05-29T17:14:20.931Z,102051.90
2019-05-29T17:16:51.252Z,102052.60
2019-05-29T17:19:22.795Z,102047.10
2019-05-29T17:21:53.439Z,102054.92
2019-05-29T17:24:24.967Z,102049.00
2019-05-29T17:26:55.385Z,102040.31
2019-05-29T17:29:25.582Z,102036.61
2019-05-29T17:31:55.811Z,102044.28
2019-05-29T17:34:26.055Z,102041.06
2019-05-29T17:36:58.105Z,102046.47
2019-05-29T17:39:28.294Z,102043.39
2019-05-29T17:41:58.516Z,102034.98
2019-05-29T17:44:28.698Z,102036.45
2019-05-29T17:46:58.849Z,102038.12
2019-05-29T17:49:34.450Z,102041.71
2019-05-29T17:52:01.062Z,102038.70
2019-05-29T17:54:31.422Z,102033.72
2019-05-29T17:57:03.414Z,102040.20
2019-05-29T17:59:33.647Z,102037.16
2019-05-29T18:02:03.893Z,102026.45
2019-05-29T18:04:34.069Z,102032.96
2019-05-29T18:07:05.432Z,102031.45
2019-05-29T18:09:36.436Z,102031.50
2019-05-29T18:12:07.668Z,102038.06
2019-05-29T18:14:38.130Z,102031.98
2019-05-29T18:17:08.745Z,102040.30
2019-05-29T18:19:39.609Z,102036.73
2019-05-29T18:22:10.515Z,102037.03
2019-05-29T18:24:42.819Z,102031.30
2019-05-29T18:27:13.648Z,102031.84
2019-05-29T18:29:43.902Z,102033.06
2019-05-29T18:32:14.097Z,102031.09
2019-05-29T18:34:44.280Z,102033.95
2019-05-29T18:37:19.995Z,102032.34
2019-05-29T18:39:49.968Z,102036.56
2019-05-29T18:42:25.595Z,102031.43
2019-05-29T18:44:56.223Z,102027.80
2019-05-29T18:47:27.261Z,102032.67
2019-05-29T18:49:57.565Z,102035.28
2019-05-29T18:52:27.830Z,102027.70
2019-05-29T18:54:58.062Z,102028.26
2019-05-29T18:57:29.092Z,102036.20
2019-05-29T19:00:01.279Z,102031.23
2019-05-29T19:02:33.047Z,102034.00
2019-05-29T19:05:03.324Z,102037.13
2019-05-29T19:07:33.595Z,102034.69
2019-05-29T19:10:06.429Z,102039.77
2019-05-29T19:12:36.508Z,102039.19
2019-05-29T19:15:07.163Z,102034.95
2019-05-29T19:18:03.904Z,102040.59
2019-05-29T19:20:34.220Z,102040.36
2019-05-29T19:23:04.650Z,102053.11
2019-05-29T19:25:34.852Z,102050.37
2019-05-29T19:28:06.652Z,102048.13
2019-05-29T19:30:39.147Z,102052.91
2019-05-29T19:33:21.109Z,102053.77
2019-05-29T19:36:09.621Z,102053.11
2019-05-29T19:38:51.833Z,102058.23
2019-05-29T19:41:28.292Z,102060.32
2019-05-29T19:44:00.846Z,102063.01
2019-05-29T19:46:53.606Z,102068.47
2019-05-29T19:49:16.699Z,102071.02
2019-05-29T19:51:56.468Z,102069.94
2019-05-29T19:54:27.448Z,102071.42
2019-05-29T19:56:57.818Z,102067.47
2019-05-29T19:59:40.111Z,102067.30
2019-05-29T20:02:21.988Z,102068.39
2019-05-29T20:05:01.162Z,102069.84
2019-05-29T20:07:33.321Z,102072.78
2019-05-29T20:10:10.931Z,102072.95
2019-05-29T20:12:52.580Z,102076.98
2019-05-29T20:15:25.707Z,102084.37
2019-05-29T20:17:56.458Z,102084.85
2019-05-29T20:20:28.168Z,102082.13
2019-05-29T20:23:00.265Z,102081.08
2019-05-29T20:25:33.276Z,102077.55
2019-05-29T20:28:06.436Z,102078.98
2019-05-29T20:30:36.472Z,102079.70
2019-05-29T20:33:06.967Z,102082.03
2019-05-29T20:35:37.355Z,102081.59
2019-05-29T20:38:07.638Z,102088.05
2019-05-29T20:40:39.323Z,102082.41
2019-05-29T20:43:09.652Z,102076.78
2019-05-29T20:45:39.869Z,102077.22
2019-05-29T20:48:12.662Z,102077.70
2019-05-29T20:50:43.290Z,102066.14
2019-05-29T20:53:16.945Z,102064.44
2019-05-29T20:55:47.189Z,102061.77
2019-05-29T20:58:24.668Z,102070.15
2019-05-29T21:00:51.036Z,102059.66
2019-05-29T21:03:21.278Z,102064.71
2019-05-29T21:05:51.535Z,102057.17
2019-05-29T21:08:21.714Z,102061.55
2019-05-29T21:10:52.127Z,102060.46
2019-05-29T21:13:22.464Z,102058.73
2019-05-29T21:15:52.629Z,102055.44
2019-05-29T21:18:22.787Z,102052.20
2019-05-29T21:20:53.007Z,102059.69
2019-05-29T21:23:23.149Z,102043.87
2019-05-29T21:25:53.469Z,102051.53
2019-05-29T21:28:39.030Z,102055.41
2019-05-29T21:30:55.650Z,102053.35
2019-05-29T21:33:25.948Z,102058.21
2019-05-29T21:35:56.222Z,102060.98
2019-05-29T21:38:26.536Z,102059.12
2019-05-29T21:40:56.801Z,102053.95
2019-05-29T21:43:26.987Z,102055.24
2019-05-29T21:45:57.250Z,102047.41
2019-05-29T21:48:27.470Z,102053.52
2019-05-29T21:50:57.648Z,102051.33
2019-05-29T21:53:30.829Z,102048.19
2019-05-29T21:56:01.017Z,102042.75
2019-05-29T21:58:31.237Z,102044.17
2019-05-29T22:01:01.566Z,102036.07
2019-05-29T22:03:32.890Z,102038.73
2019-05-29T22:06:03.165Z,102037.36
2019-05-29T22:08:33.519Z,102032.20
2019-05-29T22:11:03.693Z,102026.80
2019-05-29T22:13:33.940Z,102024.56
2019-05-29T22:16:04.115Z,102019.31
2019-05-29T22:18:34.333Z,102012.16
2019-05-29T22:21:04.484Z,102015.36
2019-05-29T22:23:34.671Z,102010.41
2019-05-29T22:26:04.816Z,102007.34
2019-05-29T22:28:34.973Z,102009.16
2019-05-29T22:31:05.148Z,102008.52
2019-05-29T22:33:35.426Z,101992.83
2019-05-29T22:36:05.754Z,101999.75
2019-05-29T22:38:35.900Z,101997.17
2019-05-29T22:41:06.140Z,101992.36
2019-05-29T22:43:37.000Z,101989.41
2019-05-29T22:46:07.151Z,101991.84
2019-05-29T22:48:37.410Z,101989.08
2019-05-29T22:51:07.745Z,101993.02
2019-05-29T22:53:38.021Z,101987.22
2019-05-29T22:56:08.550Z,101985.16
2019-05-29T22:58:38.782Z,101984.26
2019-05-29T23:01:08.907Z,101979.63
2019-05-29T23:03:39.065Z,101977.53
2019-05-29T23:06:09.186Z,101967.36
2019-05-29T23:08:39.357Z,101970.18
2019-05-29T23:11:09.583Z,101975.20
2019-05-29T23:13:39.814Z,101965.84
2019-05-29T23:16:09.994Z,101960.20
2019-05-29T23:18:40.163Z,101960.74
2019-05-29T23:21:10.328Z,101948.80
2019-05-29T23:23:40.542Z,101956.87
2019-05-29T23:26:10.669Z,101955.72
2019-05-29T23:28:42.041Z,101948.10
2019-05-29T23:31:12.216Z,101948.57
2019-05-29T23:33:42.363Z,101953.10
2019-05-29T23:36:12.575Z,101952.05
2019-05-29T23:38:42.808Z,101948.91
2019-05-29T23:41:13.856Z,101939.47
2019-05-29T23:43:44.104Z,101941.89
2019-05-29T23:46:14.281Z,101945.70
2019-05-29T23:48:44.472Z,101944.33
2019-05-29T23:51:15.645Z,101942.41
2019-05-29T23:53:45.747Z,101940.80
2019-05-29T23:56:15.911Z,101940.40
2019-05-29T23:58:46.096Z,101945.16
